sensor_id;sensor_type;location;lat;lon;timestamp;pressure;altitude;pressure_sealevel;temperature;humidity
26083;BME280;13848;49.018;12.078;2023-12-20T00:00:06;97614.00;;;2.55;92.94
26083;BME280;13848;49.018;12.078;2023-12-20T00:02:32;97618.19;;;2.57;92.83
26083;BME280;13848;49.018;12.078;2023-12-20T00:04:58;97596.69;;;2.59;92.05
26083;BME280;13848;49.018;12.078;2023-12-20T00:07:23;97593.22;;;2.58;92.44
26083;BME280;13848;49.018;12.078;2023-12-20T00:09:49;97584.75;;;2.55;92.43
26083;BME280;13848;49.018;12.078;2023-12-20T00:12:17;97583.06;;;2.62;92.60
26083;BME280;13848;49.018;12.078;2023-12-20T00:14:43;97577.75;;;2.62;91.85
26083;BME280;13848;49.018;12.078;2023-12-20T00:17:08;97574.69;;;2.73;91.88
26083;BME280;13848;49.018;12.078;2023-12-20T00:19:34;97574.97;;;2.78;91.96
26083;BME280;13848;49.018;12.078;2023-12-20T00:22:00;97570.31;;;2.80;92.50
26083;BME280;13848;49.018;12.078;2023-12-20T00:24:26;97569.94;;;2.83;93.46
26083;BME280;13848;49.018;12.078;2023-12-20T00:26:52;97561.50;;;2.80;92.68
26083;BME280;13848;49.018;12.078;2023-12-20T00:29:19;97559.66;;;2.80;93.47
26083;BME280;13848;49.018;12.078;2023-12-20T00:31:45;97559.28;;;2.83;93.09
26083;BME280;13848;49.018;12.078;2023-12-20T00:34:11;97560.81;;;2.78;94.25
26083;BME280;13848;49.018;12.078;2023-12-20T00:36:37;97574.31;;;2.76;94.07
26083;BME280;13848;49.018;12.078;2023-12-20T00:39:03;97573.97;;;2.79;94.58
26083;BME280;13848;49.018;12.078;2023-12-20T00:41:29;97558.47;;;2.83;94.58
26083;BME280;13848;49.018;12.078;2023-12-20T00:43:55;97557.75;;;2.89;94.41
26083;BME280;13848;49.018;12.078;2023-12-20T00:46:22;97547.94;;;2.89;94.54
26083;BME280;13848;49.018;12.078;2023-12-20T00:48:48;97567.06;;;2.93;93.65
26083;BME280;13848;49.018;12.078;2023-12-20T00:51:14;97563.22;;;2.96;93.73
26083;BME280;13848;49.018;12.078;2023-12-20T00:53:40;97568.91;;;2.92;93.30
26083;BME280;13848;49.018;12.078;2023-12-20T00:56:06;97567.16;;;3.31;93.26
26083;BME280;13848;49.018;12.078;2023-12-20T00:58:32;97559.81;;;3.47;93.37
26083;BME280;13848;49.018;12.078;2023-12-20T01:00:58;97572.22;;;3.40;91.94
26083;BME280;13848;49.018;12.078;2023-12-20T01:03:25;97555.63;;;3.30;91.98
26083;BME280;13848;49.018;12.078;2023-12-20T01:05:51;97554.16;;;3.28;92.08
26083;BME280;13848;49.018;12.078;2023-12-20T01:08:17;97559.50;;;3.28;91.95
26083;BME280;13848;49.018;12.078;2023-12-20T01:10:43;97567.81;;;3.25;92.28
26083;BME280;13848;49.018;12.078;2023-12-20T01:13:09;97562.97;;;3.28;92.27
26083;BME280;13848;49.018;12.078;2023-12-20T01:15:35;97564.63;;;3.29;92.40
26083;BME280;13848;49.018;12.078;2023-12-20T01:18:01;97566.03;;;3.25;93.02
26083;BME280;13848;49.018;12.078;2023-12-20T01:20:28;97561.69;;;3.24;92.84
26083;BME280;13848;49.018;12.078;2023-12-20T01:22:54;97567.16;;;3.31;93.14
26083;BME280;13848;49.018;12.078;2023-12-20T01:25:20;97565.94;;;3.33;92.52
26083;BME280;13848;49.018;12.078;2023-12-20T01:27:45;97562.28;;;3.34;93.02
26083;BME280;13848;49.018;12.078;2023-12-20T01:30:12;97556.59;;;3.37;93.42
26083;BME280;13848;49.018;12.078;2023-12-20T01:32:38;97561.63;;;3.32;93.77
26083;BME280;13848;49.018;12.078;2023-12-20T01:35:04;97555.63;;;3.30;93.85
26083;BME280;13848;49.018;12.078;2023-12-20T01:37:31;97548.31;;;3.32;93.74
26083;BME280;13848;49.018;12.078;2023-12-20T01:39:57;97544.97;;;3.30;93.82
26083;BME280;13848;49.018;12.078;2023-12-20T01:42:23;97530.00;;;3.29;94.47
26083;BME280;13848;49.018;12.078;2023-12-20T01:44:49;97537.69;;;3.24;93.89
26083;BME280;13848;49.018;12.078;2023-12-20T01:47:16;97538.50;;;3.10;95.42
26083;BME280;13848;49.018;12.078;2023-12-20T01:49:42;97540.22;;;3.03;95.94
26083;BME280;13848;49.018;12.078;2023-12-20T01:52:09;97536.47;;;3.12;95.46
26083;BME280;13848;49.018;12.078;2023-12-20T01:54:37;97530.78;;;3.15;95.21
26083;BME280;13848;49.018;12.078;2023-12-20T01:57:05;97529.84;;;3.08;95.73
26083;BME280;13848;49.018;12.078;2023-12-20T01:59:32;97528.56;;;3.04;96.16
26083;BME280;13848;49.018;12.078;2023-12-20T02:01:58;97521.78;;;3.16;96.14
26083;BME280;13848;49.018;12.078;2023-12-20T02:04:24;97526.78;;;3.19;96.03
26083;BME280;13848;49.018;12.078;2023-12-20T02:06:52;97520.72;;;3.25;95.95
26083;BME280;13848;49.018;12.078;2023-12-20T02:09:18;97515.75;;;3.22;96.30
26083;BME280;13848;49.018;12.078;2023-12-20T02:11:46;97517.06;;;3.26;96.22
26083;BME280;13848;49.018;12.078;2023-12-20T02:14:12;97514.53;;;3.25;96.47
26083;BME280;13848;49.018;12.078;2023-12-20T02:16:38;97507.56;;;3.24;96.57
26083;BME280;13848;49.018;12.078;2023-12-20T02:19:05;97501.06;;;3.26;96.52
26083;BME280;13848;49.018;12.078;2023-12-20T02:21:36;97501.41;;;3.23;97.41
26083;BME280;13848;49.018;12.078;2023-12-20T02:24:02;97490.75;;;3.23;97.68
26083;BME280;13848;49.018;12.078;2023-12-20T02:26:28;97486.72;;;3.27;97.77
26083;BME280;13848;49.018;12.078;2023-12-20T02:28:54;97492.06;;;3.27;98.27
26083;BME280;13848;49.018;12.078;2023-12-20T02:31:20;97484.69;;;3.29;98.24
26083;BME280;13848;49.018;12.078;2023-12-20T02:33:46;97486.66;;;3.35;97.75
26083;BME280;13848;49.018;12.078;2023-12-20T02:36:12;97484.47;;;3.39;98.32
26083;BME280;13848;49.018;12.078;2023-12-20T02:38:40;97486.94;;;3.40;98.50
26083;BME280;13848;49.018;12.078;2023-12-20T02:41:05;97483.53;;;3.32;99.13
26083;BME280;13848;49.018;12.078;2023-12-20T02:43:31;97479.97;;;3.39;98.82
26083;BME280;13848;49.018;12.078;2023-12-20T02:45:57;97480.25;;;3.44;98.93
26083;BME280;13848;49.018;12.078;2023-12-20T02:48:23;97479.22;;;3.45;99.06
26083;BME280;13848;49.018;12.078;2023-12-20T02:50:49;97480.53;;;3.50;98.50
26083;BME280;13848;49.018;12.078;2023-12-20T02:53:15;97482.19;;;3.51;98.15
26083;BME280;13848;49.018;12.078;2023-12-20T02:55:42;97479.03;;;3.47;98.65
26083;BME280;13848;49.018;12.078;2023-12-20T02:58:08;97475.84;;;3.52;99.00
26083;BME280;13848;49.018;12.078;2023-12-20T03:00:34;97476.03;;;3.50;98.32
26083;BME280;13848;49.018;12.078;2023-12-20T03:03:00;97479.69;;;3.49;98.40
26083;BME280;13848;49.018;12.078;2023-12-20T03:05:26;97478.88;;;3.49;99.32
26083;BME280;13848;49.018;12.078;2023-12-20T03:07:52;97474.47;;;3.56;98.45
26083;BME280;13848;49.018;12.078;2023-12-20T03:10:18;97474.75;;;3.61;98.24
26083;BME280;13848;49.018;12.078;2023-12-20T03:12:46;97477.13;;;3.56;98.74
26083;BME280;13848;49.018;12.078;2023-12-20T03:15:12;97470.78;;;3.57;98.38
26083;BME280;13848;49.018;12.078;2023-12-20T03:17:38;97463.06;;;3.62;98.02
26083;BME280;13848;49.018;12.078;2023-12-20T03:20:04;97458.56;;;3.62;97.06
26083;BME280;13848;49.018;12.078;2023-12-20T03:22:31;97449.56;;;3.63;97.72
26083;BME280;13848;49.018;12.078;2023-12-20T03:24:57;97447.06;;;3.62;97.58
26083;BME280;13848;49.018;12.078;2023-12-20T03:27:22;97445.88;;;3.64;97.22
26083;BME280;13848;49.018;12.078;2023-12-20T03:29:50;97452.88;;;3.65;96.67
26083;BME280;13848;49.018;12.078;2023-12-20T03:32:16;97451.28;;;3.71;97.16
26083;BME280;13848;49.018;12.078;2023-12-20T03:34:42;97447.78;;;3.70;96.36
26083;BME280;13848;49.018;12.078;2023-12-20T03:37:07;97452.16;;;3.71;97.09
26083;BME280;13848;49.018;12.078;2023-12-20T03:39:33;97453.31;;;3.69;97.05
26083;BME280;13848;49.018;12.078;2023-12-20T03:41:59;97458.56;;;3.77;97.28
26083;BME280;13848;49.018;12.078;2023-12-20T03:44:25;97461.59;;;3.74;97.00
26083;BME280;13848;49.018;12.078;2023-12-20T03:46:52;97461.13;;;3.70;96.60
26083;BME280;13848;49.018;12.078;2023-12-20T03:49:18;97458.66;;;3.69;97.04
26083;BME280;13848;49.018;12.078;2023-12-20T03:51:44;97463.63;;;3.72;96.82
26083;BME280;13848;49.018;12.078;2023-12-20T03:54:10;97470.63;;;3.73;97.13
26083;BME280;13848;49.018;12.078;2023-12-20T03:56:36;97468.31;;;3.70;97.39
26083;BME280;13848;49.018;12.078;2023-12-20T03:59:02;97469.13;;;3.70;98.50
26083;BME280;13848;49.018;12.078;2023-12-20T04:01:28;97467.75;;;3.74;98.10
26083;BME280;13848;49.018;12.078;2023-12-20T04:03:55;97472.25;;;3.74;98.42
26083;BME280;13848;49.018;12.078;2023-12-20T04:06:21;97474.75;;;3.76;98.40
26083;BME280;13848;49.018;12.078;2023-12-20T04:08:47;97470.44;;;3.74;99.49
26083;BME280;13848;49.018;12.078;2023-12-20T04:11:13;97469.06;;;3.79;99.68
26083;BME280;13848;49.018;12.078;2023-12-20T04:13:39;97475.03;;;3.81;99.33
26083;BME280;13848;49.018;12.078;2023-12-20T04:16:05;97476.38;;;3.77;99.16
26083;BME280;13848;49.018;12.078;2023-12-20T04:18:31;97477.78;;;3.72;100.00
26083;BME280;13848;49.018;12.078;2023-12-20T04:20:59;97471.91;;;3.77;100.00
26083;BME280;13848;49.018;12.078;2023-12-20T04:23:24;97475.56;;;3.76;100.00
26083;BME280;13848;49.018;12.078;2023-12-20T04:25:50;97483.28;;;3.71;100.00
26083;BME280;13848;49.018;12.078;2023-12-20T04:28:16;97469.56;;;3.59;100.00
26083;BME280;13848;49.018;12.078;2023-12-20T04:30:42;97472.09;;;3.61;100.00
26083;BME280;13848;49.018;12.078;2023-12-20T04:33:08;97473.53;;;3.63;100.00
26083;BME280;13848;49.018;12.078;2023-12-20T04:35:34;97476.41;;;3.62;100.00
26083;BME280;13848;49.018;12.078;2023-12-20T04:38:01;97481.91;;;3.60;100.00
26083;BME280;13848;49.018;12.078;2023-12-20T04:40:27;97480.53;;;3.64;100.00
26083;BME280;13848;49.018;12.078;2023-12-20T04:42:53;97487.69;;;3.64;100.00
26083;BME280;13848;49.018;12.078;2023-12-20T04:45:19;97478.69;;;3.65;100.00
26083;BME280;13848;49.018;12.078;2023-12-20T04:47:45;97490.56;;;3.62;100.00
26083;BME280;13848;49.018;12.078;2023-12-20T04:50:11;97482.75;;;3.61;100.00
26083;BME280;13848;49.018;12.078;2023-12-20T04:52:37;97477.84;;;3.64;100.00
26083;BME280;13848;49.018;12.078;2023-12-20T04:55:05;97481.63;;;3.70;100.00
26083;BME280;13848;49.018;12.078;2023-12-20T04:57:31;97477.94;;;3.71;100.00
26083;BME280;13848;49.018;12.078;2023-12-20T04:59:57;97472.91;;;3.76;100.00
26083;BME280;13848;49.018;12.078;2023-12-20T05:02:23;97477.59;;;3.74;100.00
26083;BME280;13848;49.018;12.078;2023-12-20T05:04:49;97481.56;;;3.78;100.00
26083;BME280;13848;49.018;12.078;2023-12-20T05:07:15;97470.91;;;3.78;100.00
26083;BME280;13848;49.018;12.078;2023-12-20T05:09:41;97470.44;;;3.74;100.00
26083;BME280;13848;49.018;12.078;2023-12-20T05:12:08;97478.25;;;3.61;100.00
26083;BME280;13848;49.018;12.078;2023-12-20T05:14:34;97483.56;;;3.61;100.00
26083;BME280;13848;49.018;12.078;2023-12-20T05:17:00;97473.72;;;3.62;100.00
26083;BME280;13848;49.018;12.078;2023-12-20T05:19:26;97478.34;;;3.68;100.00
26083;BME280;13848;49.018;12.078;2023-12-20T05:21:52;97484.97;;;3.72;100.00
26083;BME280;13848;49.018;12.078;2023-12-20T05:24:18;97487.91;;;3.77;100.00
26083;BME280;13848;49.018;12.078;2023-12-20T05:26:43;97491.22;;;3.79;100.00
26083;BME280;13848;49.018;12.078;2023-12-20T05:29:11;97500.22;;;3.78;100.00
26083;BME280;13848;49.018;12.078;2023-12-20T05:31:37;97507.47;;;3.69;100.00
26083;BME280;13848;49.018;12.078;2023-12-20T05:34:03;97498.94;;;3.74;100.00
26083;BME280;13848;49.018;12.078;2023-12-20T05:36:28;97506.34;;;3.64;100.00
26083;BME280;13848;49.018;12.078;2023-12-20T05:38:54;97498.34;;;3.64;100.00
26083;BME280;13848;49.018;12.078;2023-12-20T05:41:20;97506.84;;;3.67;100.00
26083;BME280;13848;49.018;12.078;2023-12-20T05:43:46;97506.53;;;3.62;100.00
26083;BME280;13848;49.018;12.078;2023-12-20T05:46:14;97512.69;;;3.63;100.00
26083;BME280;13848;49.018;12.078;2023-12-20T05:48:39;97510.03;;;3.63;100.00
26083;BME280;13848;49.018;12.078;2023-12-20T05:51:05;97517.78;;;3.72;100.00
26083;BME280;13848;49.018;12.078;2023-12-20T05:53:31;97520.34;;;3.66;100.00
26083;BME280;13848;49.018;12.078;2023-12-20T05:55:57;97525.84;;;3.64;100.00
26083;BME280;13848;49.018;12.078;2023-12-20T05:58:23;97526.31;;;3.68;100.00
26083;BME280;13848;49.018;12.078;2023-12-20T06:00:49;97541.09;;;3.70;100.00
26083;BME280;13848;49.018;12.078;2023-12-20T06:03:16;97542.22;;;3.76;100.00
26083;BME280;13848;49.018;12.078;2023-12-20T06:05:42;97546.91;;;3.74;100.00
26083;BME280;13848;49.018;12.078;2023-12-20T06:08:08;97546.19;;;3.80;100.00
26083;BME280;13848;49.018;12.078;2023-12-20T06:10:34;97545.47;;;3.86;100.00
26083;BME280;13848;49.018;12.078;2023-12-20T06:13:00;97542.59;;;3.88;100.00
26083;BME280;13848;49.018;12.078;2023-12-20T06:15:26;97552.09;;;3.90;100.00
26083;BME280;13848;49.018;12.078;2023-12-20T06:17:52;97549.97;;;3.86;100.00
26083;BME280;13848;49.018;12.078;2023-12-20T06:20:19;97557.44;;;3.90;100.00
26083;BME280;13848;49.018;12.078;2023-12-20T06:22:45;97554.75;;;3.90;100.00
26083;BME280;13848;49.018;12.078;2023-12-20T06:25:11;97554.94;;;3.89;100.00
26083;BME280;13848;49.018;12.078;2023-12-20T06:27:37;97564.31;;;3.85;100.00
26083;BME280;13848;49.018;12.078;2023-12-20T06:30:04;97560.81;;;3.84;100.00
26083;BME280;13848;49.018;12.078;2023-12-20T06:32:30;97563.50;;;3.84;100.00
26083;BME280;13848;49.018;12.078;2023-12-20T06:34:56;97571.69;;;3.83;100.00
26083;BME280;13848;49.018;12.078;2023-12-20T06:37:23;97571.19;;;3.79;100.00
26083;BME280;13848;49.018;12.078;2023-12-20T06:39:49;97567.91;;;3.77;100.00
26083;BME280;13848;49.018;12.078;2023-12-20T06:42:15;97573.59;;;3.74;100.00
26083;BME280;13848;49.018;12.078;2023-12-20T06:44:41;97559.13;;;3.68;100.00
26083;BME280;13848;49.018;12.078;2023-12-20T06:47:08;97565.78;;;3.72;100.00
26083;BME280;13848;49.018;12.078;2023-12-20T06:49:34;97567.91;;;3.77;100.00
26083;BME280;13848;49.018;12.078;2023-12-20T06:52:00;97578.19;;;3.80;100.00
26083;BME280;13848;49.018;12.078;2023-12-20T06:54:27;97570.28;;;3.72;100.00
26083;BME280;13848;49.018;12.078;2023-12-20T06:56:53;97582.22;;;3.76;100.00
26083;BME280;13848;49.018;12.078;2023-12-20T06:59:19;97589.94;;;3.71;100.00
26083;BME280;13848;49.018;12.078;2023-12-20T07:01:47;97598.69;;;3.80;100.00
26083;BME280;13848;49.018;12.078;2023-12-20T07:04:13;97598.88;;;3.78;100.00
26083;BME280;13848;49.018;12.078;2023-12-20T07:06:39;97603.56;;;3.76;100.00
26083;BME280;13848;49.018;12.078;2023-12-20T07:09:05;97603.84;;;3.81;100.00
26083;BME280;13848;49.018;12.078;2023-12-20T07:11:32;97604.38;;;3.77;99.36
26083;BME280;13848;49.018;12.078;2023-12-20T07:13:58;97610.19;;;3.80;99.34
26083;BME280;13848;49.018;12.078;2023-12-20T07:16:24;97611.84;;;3.81;99.77
26083;BME280;13848;49.018;12.078;2023-12-20T07:18:50;97616.53;;;3.79;99.82
26083;BME280;13848;49.018;12.078;2023-12-20T07:21:16;97618.00;;;3.82;100.00
26083;BME280;13848;49.018;12.078;2023-12-20T07:23:42;97607.94;;;3.69;99.38
26083;BME280;13848;49.018;12.078;2023-12-20T07:26:08;97619.53;;;3.76;99.41
26083;BME280;13848;49.018;12.078;2023-12-20T07:28:35;97608.88;;;3.76;99.48
26083;BME280;13848;49.018;12.078;2023-12-20T07:31:01;97614.94;;;3.70;98.80
26083;BME280;13848;49.018;12.078;2023-12-20T07:33:27;97621.09;;;3.70;99.46
26083;BME280;13848;49.018;12.078;2023-12-20T07:35:53;97621.38;;;3.76;99.90
26083;BME280;13848;49.018;12.078;2023-12-20T07:38:19;97620.50;;;3.83;99.66
26083;BME280;13848;49.018;12.078;2023-12-20T07:40:45;97637.56;;;3.74;99.52
26083;BME280;13848;49.018;12.078;2023-12-20T07:43:11;97642.56;;;3.77;99.42
26083;BME280;13848;49.018;12.078;2023-12-20T07:45:38;97651.91;;;3.73;99.54
26083;BME280;13848;49.018;12.078;2023-12-20T07:48:06;97647.41;;;3.73;100.00
26083;BME280;13848;49.018;12.078;2023-12-20T07:50:32;97652.03;;;3.80;98.97
26083;BME280;13848;49.018;12.078;2023-12-20T07:52:58;97661.75;;;3.72;100.00
26083;BME280;13848;49.018;12.078;2023-12-20T07:55:24;97662.94;;;3.70;99.20
26083;BME280;13848;49.018;12.078;2023-12-20T07:57:50;97658.72;;;3.76;99.51
26083;BME280;13848;49.018;12.078;2023-12-20T08:00:16;97668.22;;;3.78;99.42
26083;BME280;13848;49.018;12.078;2023-12-20T08:02:44;97661.88;;;3.79;98.86
26083;BME280;13848;49.018;12.078;2023-12-20T08:05:10;97669.22;;;3.77;99.14
26083;BME280;13848;49.018;12.078;2023-12-20T08:07:35;97664.16;;;3.82;99.52
26083;BME280;13848;49.018;12.078;2023-12-20T08:10:02;97663.53;;;3.80;99.00
26083;BME280;13848;49.018;12.078;2023-12-20T08:12:28;97665.28;;;3.88;99.46
26083;BME280;13848;49.018;12.078;2023-12-20T08:14:54;97664.16;;;3.82;99.23
26083;BME280;13848;49.018;12.078;2023-12-20T08:17:20;97677.16;;;3.85;99.38
26083;BME280;13848;49.018;12.078;2023-12-20T08:19:47;97685.25;;;3.92;98.79
26083;BME280;13848;49.018;12.078;2023-12-20T08:22:13;97684.13;;;3.86;98.59
26083;BME280;13848;49.018;12.078;2023-12-20T08:24:39;97685.44;;;3.90;99.66
26083;BME280;13848;49.018;12.078;2023-12-20T08:27:05;97681.41;;;3.94;99.22
26083;BME280;13848;49.018;12.078;2023-12-20T08:29:31;97685.16;;;3.85;99.58
26083;BME280;13848;49.018;12.078;2023-12-20T08:31:57;97680.63;;;3.86;99.43
26083;BME280;13848;49.018;12.078;2023-12-20T08:34:23;97688.13;;;3.90;99.81
26083;BME280;13848;49.018;12.078;2023-12-20T08:36:50;97691.06;;;3.95;99.45
26083;BME280;13848;49.018;12.078;2023-12-20T08:39:16;97689.41;;;3.94;100.00
26083;BME280;13848;49.018;12.078;2023-12-20T08:41:42;97692.34;;;3.99;99.56
26083;BME280;13848;49.018;12.078;2023-12-20T08:44:08;97694.66;;;4.03;99.79
26083;BME280;13848;49.018;12.078;2023-12-20T08:46:34;97693.38;;;3.98;100.00
26083;BME280;13848;49.018;12.078;2023-12-20T08:49:00;97688.31;;;4.04;100.00
26083;BME280;13848;49.018;12.078;2023-12-20T08:51:26;97680.31;;;4.04;100.00
26083;BME280;13848;49.018;12.078;2023-12-20T08:53:54;97683.28;;;4.09;100.00
26083;BME280;13848;49.018;12.078;2023-12-20T08:56:20;97684.94;;;4.10;100.00
26083;BME280;13848;49.018;12.078;2023-12-20T08:58:46;97684.00;;;4.03;100.00
26083;BME280;13848;49.018;12.078;2023-12-20T09:01:12;97675.06;;;3.95;100.00
26083;BME280;13848;49.018;12.078;2023-12-20T09:03:39;97686.16;;;3.84;100.00
26083;BME280;13848;49.018;12.078;2023-12-20T09:06:05;97681.94;;;3.90;100.00
26083;BME280;13848;49.018;12.078;2023-12-20T09:08:31;97675.31;;;3.86;100.00
26083;BME280;13848;49.018;12.078;2023-12-20T09:10:58;97667.34;;;4.00;100.00
26083;BME280;13848;49.018;12.078;2023-12-20T09:13:24;97668.72;;;3.96;100.00
26083;BME280;13848;49.018;12.078;2023-12-20T09:15:50;97670.47;;;3.89;100.00
26083;BME280;13848;49.018;12.078;2023-12-20T09:18:16;97677.63;;;3.89;100.00
26083;BME280;13848;49.018;12.078;2023-12-20T09:20:42;97675.72;;;3.97;100.00
26083;BME280;13848;49.018;12.078;2023-12-20T09:23:08;97673.75;;;3.91;100.00
26083;BME280;13848;49.018;12.078;2023-12-20T09:25:34;97676.09;;;3.94;100.00
26083;BME280;13848;49.018;12.078;2023-12-20T09:28:01;97674.34;;;4.02;100.00
26083;BME280;13848;49.018;12.078;2023-12-20T09:30:27;97675.34;;;4.00;100.00
26083;BME280;13848;49.018;12.078;2023-12-20T09:32:53;97685.38;;;3.98;100.00
26083;BME280;13848;49.018;12.078;2023-12-20T09:35:19;97688.97;;;4.06;100.00
26083;BME280;13848;49.018;12.078;2023-12-20T09:37:45;97691.47;;;4.07;100.00
26083;BME280;13848;49.018;12.078;2023-12-20T09:40:12;97681.72;;;4.14;100.00
26083;BME280;13848;49.018;12.078;2023-12-20T09:42:48;97686.53;;;4.19;100.00
26083;BME280;13848;49.018;12.078;2023-12-20T09:45:15;97674.41;;;4.31;100.00
26083;BME280;13848;49.018;12.078;2023-12-20T09:47:42;97672.09;;;4.87;100.00
26083;BME280;13848;49.018;12.078;2023-12-20T09:50:09;97674.41;;;5.26;100.00
26083;BME280;13848;49.018;12.078;2023-12-20T09:52:36;97672.69;;;5.04;98.54
26083;BME280;13848;49.018;12.078;2023-12-20T09:55:03;97666.03;;;4.93;98.27
26083;BME280;13848;49.018;12.078;2023-12-20T09:57:30;97666.22;;;4.77;97.88
26083;BME280;13848;49.018;12.078;2023-12-20T09:59:56;97671.00;;;4.67;98.79
26083;BME280;13848;49.018;12.078;2023-12-20T10:02:24;97668.34;;;4.67;98.47
26083;BME280;13848;49.018;12.078;2023-12-20T10:04:51;97663.63;;;4.69;99.20
26083;BME280;13848;49.018;12.078;2023-12-20T10:07:16;97662.34;;;4.65;98.86
26083;BME280;13848;49.018;12.078;2023-12-20T10:09:44;97667.03;;;4.77;98.59
26083;BME280;13848;49.018;12.078;2023-12-20T10:12:10;97656.91;;;4.73;98.87
26083;BME280;13848;49.018;12.078;2023-12-20T10:14:36;97648.06;;;4.72;97.51
26083;BME280;13848;49.018;12.078;2023-12-20T10:17:02;97637.88;;;6.54;98.07
26083;BME280;13848;49.018;12.078;2023-12-20T10:19:30;97647.41;;;8.58;87.49
26083;BME280;13848;49.018;12.078;2023-12-20T10:21:57;97645.69;;;8.77;82.85
26083;BME280;13848;49.018;12.078;2023-12-20T10:24:24;97646.34;;;9.94;81.08
26083;BME280;13848;49.018;12.078;2023-12-20T10:27:01;97638.00;;;10.88;75.89
26083;BME280;13848;49.018;12.078;2023-12-20T10:29:27;97638.06;;;11.37;77.52
26083;BME280;13848;49.018;12.078;2023-12-20T10:31:53;97637.28;;;10.81;72.86
26083;BME280;13848;49.018;12.078;2023-12-20T10:34:19;97634.69;;;9.68;70.97
26083;BME280;13848;49.018;12.078;2023-12-20T10:36:46;97637.91;;;7.96;73.54
26083;BME280;13848;49.018;12.078;2023-12-20T10:39:13;97653.44;;;6.72;78.85
26083;BME280;13848;49.018;12.078;2023-12-20T10:41:41;97647.94;;;6.86;80.46
26083;BME280;13848;49.018;12.078;2023-12-20T10:44:08;97650.47;;;7.01;81.34
26083;BME280;13848;49.018;12.078;2023-12-20T10:46:35;97649.75;;;6.73;81.26
26083;BME280;13848;49.018;12.078;2023-12-20T10:49:02;97656.44;;;6.55;81.95
26083;BME280;13848;49.018;12.078;2023-12-20T10:51:28;97677.88;;;6.55;81.92
26083;BME280;13848;49.018;12.078;2023-12-20T10:53:56;97671.16;;;6.38;81.65
26083;BME280;13848;49.018;12.078;2023-12-20T10:56:22;97663.78;;;6.19;82.41
26083;BME280;13848;49.018;12.078;2023-12-20T10:58:48;97661.78;;;6.21;82.76
26083;BME280;13848;49.018;12.078;2023-12-20T11:01:15;97647.16;;;6.23;81.59
26083;BME280;13848;49.018;12.078;2023-12-20T11:03:44;97638.78;;;6.33;82.51
26083;BME280;13848;49.018;12.078;2023-12-20T11:06:15;97643.25;;;6.60;83.67
26083;BME280;13848;49.018;12.078;2023-12-20T11:08:48;97657.09;;;7.05;82.84
26083;BME280;13848;49.018;12.078;2023-12-20T11:11:22;97651.69;;;6.92;81.04
26083;BME280;13848;49.018;12.078;2023-12-20T11:13:55;97648.72;;;7.28;78.63
26083;BME280;13848;49.018;12.078;2023-12-20T11:16:23;97652.75;;;7.65;78.42
26083;BME280;13848;49.018;12.078;2023-12-20T11:18:50;97638.97;;;9.82;75.49
26083;BME280;13848;49.018;12.078;2023-12-20T11:21:16;97638.44;;;9.99;73.45
26083;BME280;13848;49.018;12.078;2023-12-20T11:23:42;97625.13;;;11.69;65.71
26083;BME280;13848;49.018;12.078;2023-12-20T11:26:08;97623.13;;;13.00;67.06
26083;BME280;13848;49.018;12.078;2023-12-20T11:28:36;97618.94;;;13.61;61.58
26083;BME280;13848;49.018;12.078;2023-12-20T11:31:02;97617.38;;;13.94;58.93
26083;BME280;13848;49.018;12.078;2023-12-20T11:33:30;97619.25;;;13.93;53.92
26083;BME280;13848;49.018;12.078;2023-12-20T11:35:57;97612.91;;;13.71;55.69
26083;BME280;13848;49.018;12.078;2023-12-20T11:38:23;97604.47;;;14.18;55.96
26083;BME280;13848;49.018;12.078;2023-12-20T11:40:50;97600.00;;;14.79;49.84
26083;BME280;13848;49.018;12.078;2023-12-20T11:43:30;97590.84;;;14.29;49.08
26083;BME280;13848;49.018;12.078;2023-12-20T11:46:02;97595.44;;;14.12;49.21
26083;BME280;13848;49.018;12.078;2023-12-20T11:48:30;97597.31;;;14.45;47.36
26083;BME280;13848;49.018;12.078;2023-12-20T11:50:55;97596.00;;;14.31;47.11
26083;BME280;13848;49.018;12.078;2023-12-20T11:53:21;97590.75;;;14.41;47.49
26083;BME280;13848;49.018;12.078;2023-12-20T11:55:48;97581.53;;;14.25;48.94
26083;BME280;13848;49.018;12.078;2023-12-20T11:58:14;97584.38;;;15.35;49.29
26083;BME280;13848;49.018;12.078;2023-12-20T12:00:41;97577.50;;;14.83;46.15
26083;BME280;13848;49.018;12.078;2023-12-20T12:03:09;97571.97;;;13.55;48.96
26083;BME280;13848;49.018;12.078;2023-12-20T12:05:35;97588.91;;;11.88;48.63
26083;BME280;13848;49.018;12.078;2023-12-20T12:08:01;97586.72;;;11.55;52.44
26083;BME280;13848;49.018;12.078;2023-12-20T12:10:28;97576.97;;;10.57;53.68
26083;BME280;13848;49.018;12.078;2023-12-20T12:12:54;97579.00;;;10.44;55.24
26083;BME280;13848;49.018;12.078;2023-12-20T12:15:21;97577.16;;;8.99;57.08
26083;BME280;13848;49.018;12.078;2023-12-20T12:17:52;97585.22;;;8.15;58.06
26083;BME280;13848;49.018;12.078;2023-12-20T12:20:20;97586.25;;;7.94;58.72
26083;BME280;13848;49.018;12.078;2023-12-20T12:22:46;97585.88;;;7.97;59.75
26083;BME280;13848;49.018;12.078;2023-12-20T12:25:13;97592.84;;;8.11;60.15
26083;BME280;13848;49.018;12.078;2023-12-20T12:27:42;97588.91;;;7.41;61.46
26083;BME280;13848;49.018;12.078;2023-12-20T12:30:09;97601.94;;;7.31;61.12
26083;BME280;13848;49.018;12.078;2023-12-20T12:32:35;97597.31;;;7.18;62.22
26083;BME280;13848;49.018;12.078;2023-12-20T12:35:03;97596.63;;;6.89;61.72
26083;BME280;13848;49.018;12.078;2023-12-20T12:37:30;97600.91;;;6.84;62.79
26083;BME280;13848;49.018;12.078;2023-12-20T12:39:56;97608.25;;;6.55;63.04
26083;BME280;13848;49.018;12.078;2023-12-20T12:42:22;97620.69;;;6.42;62.76
26083;BME280;13848;49.018;12.078;2023-12-20T12:44:48;97613.81;;;6.26;62.71
26083;BME280;13848;49.018;12.078;2023-12-20T12:47:14;97613.41;;;6.29;63.05
26083;BME280;13848;49.018;12.078;2023-12-20T12:49:40;97600.75;;;6.44;63.45